Time;durP1;ratioP1;P1;durP2;ratioP2;P2;SDS_P1;SDS_P2;PMS_P1;PMS_P2;Temp;Humidity;BMP_temperature;BMP_pressure;BME280_temperature;BME280_humidity;BME280_pressure;Samples;Min_cycle;Max_cycle;Signal;HPM_P1;HPM_P2
2023/10/27 00:00:00;;;;;;;0.60;0.60;;;13.60;99.90;;;;;;7394851;19;20603;-86
2023/10/27 00:02:25;;;;;;;0.40;0.40;;;14.00;99.90;;;;;;7395525;19;20166;-86
2023/10/27 00:04:51;;;;;;;0.47;0.43;;;13.60;99.90;;;;;;7394547;19;20143;-85
2023/10/27 00:07:17;;;;;;;1.02;0.50;;;13.40;99.90;;;;;;7393970;19;20475;-85
2023/10/27 00:09:43;;;;;;;0.50;0.47;;;13.60;99.90;;;;;;7394025;19;20604;-84
2023/10/27 00:12:08;;;;;;;1.30;0.52;;;13.60;99.90;;;;;;7396721;19;20202;-84
2023/10/27 00:14:34;;;;;;;0.67;0.53;;;13.60;99.90;;;;;;7396411;19;20139;-84
2023/10/27 00:17:01;;;;;;;0.50;0.50;;;13.60;99.90;;;;;;7396337;19;20671;-83
2023/10/27 00:19:27;;;;;;;0.73;0.60;;;13.60;99.90;;;;;;7394581;19;20190;-85
2023/10/27 00:21:53;;;;;;;0.57;0.50;;;13.50;99.90;;;;;;7394606;19;20527;-84
2023/10/27 00:24:20;;;;;;;0.70;0.30;;;13.50;99.90;;;;;;7395957;19;20583;-84
2023/10/27 00:26:46;;;;;;;0.53;0.53;;;13.60;99.90;;;;;;7395231;19;20150;-84
2023/10/27 00:29:11;;;;;;;0.70;0.60;;;13.60;99.90;;;;;;7393683;19;20139;-84
2023/10/27 00:31:37;;;;;;;0.38;0.38;;;13.50;99.90;;;;;;7394389;19;20130;-85
2023/10/27 00:34:03;;;;;;;0.40;0.40;;;13.40;99.90;;;;;;7392361;19;20148;-85
2023/10/27 00:36:29;;;;;;;0.82;0.50;;;13.40;99.90;;;;;;7396031;19;20170;-84
2023/10/27 00:38:54;;;;;;;0.20;0.20;;;13.40;99.90;;;;;;7394541;19;20596;-85
2023/10/27 00:41:23;;;;;;;0.40;0.30;;;13.30;99.90;;;;;;7394986;19;20172;-84
2023/10/27 00:43:49;;;;;;;1.67;0.67;;;13.10;99.90;;;;;;7394591;19;20131;-84
2023/10/27 00:46:16;;;;;;;0.50;0.40;;;13.10;99.90;;;;;;7393053;19;20141;-83
2023/10/27 00:48:42;;;;;;;0.30;0.30;;;13.20;99.90;;;;;;7393853;19;20126;-85
2023/10/27 00:51:09;;;;;;;0.40;0.40;;;13.00;99.90;;;;;;7393829;19;20142;-87
2023/10/27 00:53:38;;;;;;;0.30;0.30;;;12.90;99.90;;;;;;7393272;19;20150;-84
2023/10/27 00:56:07;;;;;;;0.63;0.40;;;13.00;99.90;;;;;;7395002;19;20150;-88
2023/10/27 00:58:33;;;;;;;0.40;0.30;;;13.10;99.90;;;;;;7395477;19;20162;-86
2023/10/27 01:01:03;;;;;;;0.57;0.47;;;13.40;99.90;;;;;;7395523;19;20169;-87
2023/10/27 01:03:30;;;;;;;0.40;0.40;;;13.30;99.90;;;;;;7399409;19;20146;-86
2023/10/27 01:05:55;;;;;;;0.40;0.40;;;13.40;99.90;;;;;;7400974;19;20635;-86
2023/10/27 01:08:21;;;;;;;0.20;0.20;;;13.40;99.90;;;;;;7398945;19;20171;-85
2023/10/27 01:10:47;;;;;;;1.07;0.60;;;13.30;99.90;;;;;;7401024;19;20150;-86
2023/10/27 01:13:13;;;;;;;0.47;0.47;;;13.20;99.90;;;;;;7397665;19;20151;-86
2023/10/27 01:15:39;;;;;;;0.33;0.33;;;13.50;99.90;;;;;;7398003;19;20163;-86
2023/10/27 01:18:05;;;;;;;0.40;0.40;;;13.30;99.90;;;;;;7397504;19;20272;-87
2023/10/27 01:20:32;;;;;;;0.50;0.43;;;13.30;99.90;;;;;;7400311;19;20209;-86
2023/10/27 01:23:02;;;;;;;1.50;0.50;;;13.40;99.90;;;;;;7398538;19;20135;-87
2023/10/27 01:25:28;;;;;;;0.40;0.40;;;13.70;99.90;;;;;;7400209;19;20150;-86
2023/10/27 01:27:55;;;;;;;0.40;0.40;;;13.40;99.90;;;;;;7400107;19;20551;-87
2023/10/27 01:30:20;;;;;;;0.50;0.50;;;13.40;99.90;;;;;;7398378;19;20150;-86
2023/10/27 01:32:46;;;;;;;0.30;0.30;;;13.30;99.90;;;;;;7400877;19;20138;-85
2023/10/27 01:35:12;;;;;;;0.20;0.20;;;13.20;99.90;;;;;;7399041;19;20135;-86
2023/10/27 01:37:38;;;;;;;0.50;0.50;;;13.30;99.90;;;;;;7398423;19;20169;-86
2023/10/27 01:40:04;;;;;;;0.40;0.40;;;13.60;99.90;;;;;;7399835;19;20146;-86
2023/10/27 01:42:34;;;;;;;0.38;0.32;;;13.40;99.90;;;;;;7397713;19;20158;-86
2023/10/27 01:45:03;;;;;;;0.40;0.40;;;13.40;99.90;;;;;;7397809;19;20167;-86
2023/10/27 01:47:29;;;;;;;0.97;0.70;;;13.40;99.90;;;;;;7397032;19;20162;-84
2023/10/27 01:49:55;;;;;;;1.30;0.40;;;13.30;99.90;;;;;;7398749;19;20135;-86
2023/10/27 01:52:21;;;;;;;0.33;0.33;;;13.30;99.90;;;;;;7399574;19;20141;-86
2023/10/27 01:54:47;;;;;;;0.33;0.30;;;13.30;99.90;;;;;;7400610;19;20692;-87
2023/10/27 01:57:13;;;;;;;0.90;0.50;;;13.30;99.90;;;;;;7400097;19;20165;-87
2023/10/27 01:59:38;;;;;;;1.83;0.50;;;13.40;99.90;;;;;;7398846;19;20608;-87
2023/10/27 02:02:04;;;;;;;0.60;0.60;;;13.50;99.90;;;;;;7401895;19;20601;-88
2023/10/27 02:04:35;;;;;;;0.60;0.50;;;13.40;99.90;;;;;;7401331;19;20231;-87
2023/10/27 02:07:01;;;;;;;0.80;0.60;;;13.20;99.90;;;;;;7397973;19;20147;-87
2023/10/27 02:09:26;;;;;;;0.33;0.33;;;13.30;99.90;;;;;;7399011;19;20175;-88
2023/10/27 02:11:52;;;;;;;0.47;0.40;;;13.30;99.90;;;;;;7402228;19;20141;-87
2023/10/27 02:14:18;;;;;;;0.20;0.20;;;13.50;99.90;;;;;;7395702;19;20149;-86
2023/10/27 02:16:44;;;;;;;1.27;0.53;;;13.40;99.90;;;;;;7399308;19;20214;-87
2023/10/27 02:19:13;;;;;;;0.65;0.32;;;13.20;99.90;;;;;;7398054;19;20138;-86
2023/10/27 02:21:39;;;;;;;0.40;0.40;;;13.20;99.90;;;;;;7399817;19;20134;-87
2023/10/27 02:24:05;;;;;;;0.20;0.20;;;13.30;99.90;;;;;;7398784;19;20218;-87
2023/10/27 02:26:31;;;;;;;0.57;0.33;;;13.30;99.90;;;;;;7398817;19;20175;-88
2023/10/27 02:28:57;;;;;;;0.30;0.30;;;13.30;99.90;;;;;;7401823;19;20652;-92
2023/10/27 02:31:22;;;;;;;0.20;0.20;;;13.60;99.90;;;;;;7398602;19;20131;-87
2023/10/27 02:33:48;;;;;;;0.70;0.70;;;13.00;99.90;;;;;;7396263;19;20284;-87
2023/10/27 02:36:14;;;;;;;0.30;0.30;;;13.20;99.90;;;;;;7398294;19;20539;-87
2023/10/27 02:38:40;;;;;;;0.43;0.43;;;13.00;99.90;;;;;;7396855;19;20165;-86
2023/10/27 02:41:10;;;;;;;0.30;0.30;;;13.30;99.90;;;;;;7396604;19;20142;-87
2023/10/27 02:43:38;;;;;;;0.45;0.45;;;13.10;99.90;;;;;;7395288;19;20135;-87
2023/10/27 02:46:05;;;;;;;0.27;0.27;;;13.10;99.90;;;;;;7397410;19;20213;-86
2023/10/27 02:48:31;;;;;;;0.27;0.27;;;13.00;99.90;;;;;;7398594;19;20123;-87
2023/10/27 02:50:57;;;;;;;0.70;0.47;;;13.00;99.90;;;;;;7397570;19;20665;-87
2023/10/27 02:53:23;;;;;;;0.57;0.50;;;13.00;99.90;;;;;;7395109;19;20174;-85
2023/10/27 02:55:52;;;;;;;0.40;0.40;;;12.90;99.90;;;;;;7399141;19;20139;-85
2023/10/27 02:58:20;;;;;;;0.50;0.50;;;12.80;99.90;;;;;;7397451;19;20147;-87
2023/10/27 03:00:46;;;;;;;0.43;0.30;;;12.90;99.90;;;;;;7398748;19;20154;-87
2023/10/27 03:03:12;;;;;;;0.30;0.30;;;13.00;99.90;;;;;;7396556;19;20138;-87
2023/10/27 03:05:37;;;;;;;0.20;0.20;;;13.10;99.90;;;;;;7398107;19;20584;-87
2023/10/27 03:08:03;;;;;;;1.07;0.60;;;13.10;99.90;;;;;;7397593;19;20143;-87
2023/10/27 03:10:31;;;;;;;0.40;0.33;;;13.20;99.90;;;;;;7398308;19;20256;-87
2023/10/27 03:13:00;;;;;;;0.40;0.40;;;13.20;99.90;;;;;;7397107;19;20603;-85
2023/10/27 03:15:26;;;;;;;0.20;0.20;;;13.10;99.90;;;;;;7398354;19;20159;-86
2023/10/27 03:17:52;;;;;;;0.83;0.50;;;13.00;99.90;;;;;;7397686;19;20131;-86
2023/10/27 03:20:18;;;;;;;0.13;0.13;;;13.10;99.90;;;;;;7400104;19;20154;-87
2023/10/27 03:22:44;;;;;;;0.20;0.20;;;13.10;99.90;;;;;;7397847;19;20499;-85
2023/10/27 03:25:09;;;;;;;2.37;0.57;;;13.20;99.90;;;;;;7396917;19;20135;-86
2023/10/27 03:27:35;;;;;;;0.40;0.40;;;13.20;99.90;;;;;;7397759;19;20139;-86
2023/10/27 03:30:03;;;;;;;0.50;0.50;;;13.30;99.90;;;;;;7399133;19;20154;-87
2023/10/27 03:32:29;;;;;;;0.20;0.20;;;12.80;99.90;;;;;;7397950;19;20139;-86
2023/10/27 03:34:54;;;;;;;0.40;0.40;;;12.80;99.90;;;;;;7397299;19;20151;-86
2023/10/27 03:37:20;;;;;;;0.30;0.30;;;12.90;99.90;;;;;;7398532;19;20147;-87
2023/10/27 03:39:46;;;;;;;0.57;0.30;;;12.80;99.90;;;;;;7397566;19;20142;-85
2023/10/27 03:42:12;;;;;;;0.27;0.27;;;13.00;99.90;;;;;;7400751;19;20220;-85
2023/10/27 03:44:38;;;;;;;0.30;0.30;;;13.10;99.90;;;;;;7398884;19;20201;-86
2023/10/27 03:47:04;;;;;;;0.30;0.30;;;13.10;99.90;;;;;;7400216;19;20141;-87
2023/10/27 03:49:30;;;;;;;0.30;0.30;;;12.60;99.90;;;;;;7397782;19;20171;-86
2023/10/27 03:51:56;;;;;;;0.30;0.30;;;12.80;99.90;;;;;;7401465;19;20134;-85
2023/10/27 03:54:21;;;;;;;0.27;0.27;;;12.70;99.90;;;;;;7397278;19;20150;-87
2023/10/27 03:56:48;;;;;;;0.27;0.27;;;12.90;99.90;;;;;;7399206;19;20154;-88
2023/10/27 03:59:14;;;;;;;0.40;0.40;;;13.00;99.90;;;;;;7399550;19;20237;-88
2023/10/27 04:01:40;;;;;;;0.53;0.40;;;13.40;99.90;;;;;;7397791;19;20150;-82
2023/10/27 04:04:06;;;;;;;0.97;0.73;;;13.00;99.90;;;;;;7395403;19;20131;-83
2023/10/27 04:06:31;;;;;;;0.30;0.30;;;13.00;99.90;;;;;;7394767;19;20195;-83
2023/10/27 04:08:58;;;;;;;0.23;0.23;;;13.10;99.90;;;;;;7394742;19;20170;-81
2023/10/27 04:11:24;;;;;;;0.53;0.50;;;13.10;99.90;;;;;;7396750;19;20142;-83
2023/10/27 04:13:50;;;;;;;0.40;0.40;;;13.20;99.90;;;;;;7396527;19;20194;-81
2023/10/27 04:16:15;;;;;;;0.40;0.40;;;13.10;99.90;;;;;;7395505;19;20641;-83
2023/10/27 04:18:41;;;;;;;0.30;0.30;;;13.00;99.90;;;;;;7395268;19;20155;-83
2023/10/27 04:21:07;;;;;;;0.30;0.30;;;13.10;99.90;;;;;;7396298;19;20501;-82
2023/10/27 04:23:33;;;;;;;0.30;0.30;;;13.00;99.90;;;;;;7395855;19;20131;-82
2023/10/27 04:25:59;;;;;;;2.30;0.40;;;13.00;99.90;;;;;;7396214;19;20941;-83
2023/10/27 04:28:25;;;;;;;1.00;0.60;;;13.00;99.90;;;;;;7394523;19;20142;-83
2023/10/27 04:30:53;;;;;;;0.30;0.30;;;12.60;99.90;;;;;;7395987;19;20137;-84
2023/10/27 04:33:22;;;;;;;0.30;0.30;;;13.00;99.90;;;;;;7394749;19;20138;-83
2023/10/27 04:35:48;;;;;;;0.73;0.50;;;13.00;99.90;;;;;;7395567;19;20130;-81
2023/10/27 04:38:14;;;;;;;0.40;0.40;;;12.90;99.90;;;;;;7394049;19;20146;-82
2023/10/27 04:40:40;;;;;;;0.33;0.33;;;13.00;99.90;;;;;;7395132;19;20137;-82
2023/10/27 04:43:05;;;;;;;1.57;0.50;;;12.80;99.90;;;;;;7394218;19;20137;-83
2023/10/27 04:45:31;;;;;;;0.20;0.20;;;12.90;99.90;;;;;;7395411;19;20141;-84
2023/10/27 04:47:57;;;;;;;0.47;0.47;;;13.00;99.90;;;;;;7394055;19;20625;-83
2023/10/27 04:50:24;;;;;;;0.93;0.60;;;12.80;99.90;;;;;;7393769;19;20150;-85
2023/10/27 04:52:50;;;;;;;0.40;0.40;;;13.10;99.90;;;;;;7394974;19;20427;-83
2023/10/27 04:55:16;;;;;;;0.87;0.50;;;12.90;99.90;;;;;;7395680;19;20181;-83
2023/10/27 04:57:42;;;;;;;1.60;0.33;;;12.70;99.90;;;;;;7394791;19;20140;-82
2023/10/27 05:00:08;;;;;;;0.20;0.20;;;12.70;99.90;;;;;;7394863;19;20469;-82
2023/10/27 05:02:34;;;;;;;0.73;0.43;;;12.90;99.90;;;;;;7395255;19;20164;-82
2023/10/27 05:05:00;;;;;;;0.77;0.43;;;13.00;99.90;;;;;;7394318;19;20154;-83
2023/10/27 05:07:25;;;;;;;0.43;0.30;;;13.10;99.90;;;;;;7394236;19;20147;-83
2023/10/27 05:09:51;;;;;;;0.40;0.40;;;13.00;99.90;;;;;;7392772;19;20164;-82
2023/10/27 05:12:18;;;;;;;0.50;0.40;;;13.00;99.90;;;;;;7394158;19;20226;-81
2023/10/27 05:14:44;;;;;;;0.30;0.30;;;13.10;99.90;;;;;;7393571;19;20130;-83
2023/10/27 05:17:11;;;;;;;0.50;0.50;;;13.20;99.90;;;;;;7395100;19;20123;-82
2023/10/27 05:19:37;;;;;;;0.40;0.40;;;13.10;99.90;;;;;;7395099;19;20150;-84
2023/10/27 05:22:04;;;;;;;0.33;0.30;;;12.90;99.90;;;;;;7395136;19;20467;-81
2023/10/27 05:24:34;;;;;;;0.23;0.23;;;13.00;99.90;;;;;;7392560;19;20133;-83
2023/10/27 05:27:01;;;;;;;0.83;0.43;;;13.00;99.90;;;;;;7392749;19;20150;-83
2023/10/27 05:29:26;;;;;;;0.35;0.35;;;13.10;99.90;;;;;;7393174;19;20303;-83
2023/10/27 05:31:53;;;;;;;1.00;0.60;;;12.90;99.90;;;;;;7395320;19;20135;-87
2023/10/27 05:34:19;;;;;;;1.25;1.05;;;13.20;99.90;;;;;;7399526;19;20178;-87
2023/10/27 05:36:45;;;;;;;0.50;0.50;;;13.20;99.90;;;;;;7408049;19;20162;-87
2023/10/27 05:39:16;;;;;;;0.50;0.30;;;13.10;99.90;;;;;;7415412;19;20485;-85
2023/10/27 05:41:46;;;;;;;0.60;0.40;;;12.90;99.90;;;;;;7415634;19;20127;-87
2023/10/27 05:44:13;;;;;;;0.38;0.38;;;13.00;99.90;;;;;;7411313;19;20134;-84
2023/10/27 05:46:39;;;;;;;0.30;0.30;;;12.90;99.90;;;;;;7398710;19;20127;-85
2023/10/27 05:49:05;;;;;;;0.55;0.32;;;13.10;99.90;;;;;;7398180;19;20138;-86
2023/10/27 05:51:35;;;;;;;0.37;0.37;;;13.30;99.90;;;;;;7403804;19;20141;-86
2023/10/27 05:54:01;;;;;;;0.27;0.27;;;13.00;99.90;;;;;;7400919;19;20162;-85
2023/10/27 05:56:27;;;;;;;0.40;0.40;;;13.00;99.90;;;;;;7401257;19;20177;-86
2023/10/27 05:58:54;;;;;;;0.43;0.40;;;13.00;99.90;;;;;;7401622;19;20138;-83
2023/10/27 06:01:20;;;;;;;0.50;0.30;;;13.00;99.90;;;;;;7402247;19;20147;-83
2023/10/27 06:03:48;;;;;;;0.40;0.40;;;13.00;99.90;;;;;;7402914;19;20163;-86
2023/10/27 06:06:15;;;;;;;0.40;0.40;;;13.10;99.90;;;;;;7399784;19;20168;-83
2023/10/27 06:08:42;;;;;;;0.30;0.30;;;13.00;99.90;;;;;;7400933;19;20183;-85
2023/10/27 06:11:08;;;;;;;0.60;0.30;;;13.00;99.90;;;;;;7403197;19;20251;-84
2023/10/27 06:13:34;;;;;;;0.40;0.37;;;13.00;99.90;;;;;;7400779;19;20151;-86
2023/10/27 06:16:00;;;;;;;0.77;0.50;;;13.00;99.90;;;;;;7400184;19;20151;-85
2023/10/27 06:21:00;;;;;;;0.40;0.40;;;12.90;99.90;;;;;;7393442;19;20135;-83
2023/10/27 06:23:26;;;;;;;0.63;0.63;;;12.90;99.90;;;;;;7396711;19;20686;-86
2023/10/27 06:25:51;;;;;;;0.63;0.63;;;12.90;99.90;;;;;;7397219;19;20167;-85
2023/10/27 06:28:17;;;;;;;0.77;0.77;;;13.00;99.90;;;;;;7397099;19;20146;-86
2023/10/27 06:30:43;;;;;;;1.33;0.70;;;13.20;99.90;;;;;;7398074;19;20127;-86
2023/10/27 06:33:09;;;;;;;2.25;1.27;;;13.00;99.90;;;;;;7396780;19;20123;-85
2023/10/27 06:35:36;;;;;;;2.90;0.90;;;13.10;99.90;;;;;;7396582;19;20194;-85
2023/10/27 06:38:02;;;;;;;1.60;1.10;;;13.10;99.90;;;;;;7399743;19;20131;-86
2023/10/27 06:40:30;;;;;;;1.47;0.90;;;13.10;99.90;;;;;;7398032;19;20140;-88
2023/10/27 06:42:55;;;;;;;0.60;0.40;;;13.20;99.90;;;;;;7397444;19;20127;-86
2023/10/27 06:45:21;;;;;;;0.67;0.50;;;13.00;99.90;;;;;;7396621;19;20594;-87
2023/10/27 06:47:47;;;;;;;0.53;0.40;;;13.00;99.90;;;;;;7399090;19;20198;-87
2023/10/27 06:50:13;;;;;;;0.40;0.40;;;13.10;99.90;;;;;;7399680;19;20180;-87
2023/10/27 06:52:39;;;;;;;0.60;0.33;;;13.00;99.90;;;;;;7397174;19;20150;-89
2023/10/27 06:55:06;;;;;;;0.50;0.50;;;13.30;99.90;;;;;;7398354;19;20134;-87
2023/10/27 06:57:31;;;;;;;0.60;0.50;;;13.10;99.90;;;;;;7397887;19;20142;-88
2023/10/27 06:59:57;;;;;;;0.43;0.40;;;13.20;99.90;;;;;;7398021;19;20531;-86
2023/10/27 07:02:23;;;;;;;1.67;0.70;;;13.20;99.90;;;;;;7399004;19;20206;-88
2023/10/27 07:04:49;;;;;;;0.40;0.40;;;13.30;99.90;;;;;;7398914;19;20478;-86
2023/10/27 07:07:15;;;;;;;0.63;0.40;;;13.20;99.90;;;;;;7397221;19;20142;-87
2023/10/27 07:09:42;;;;;;;0.67;0.50;;;13.30;99.90;;;;;;7398974;19;20135;-88
2023/10/27 07:12:08;;;;;;;0.53;0.47;;;13.30;99.90;;;;;;7397751;19;20206;-88
2023/10/27 07:14:36;;;;;;;0.30;0.30;;;13.10;99.90;;;;;;7395059;19;20674;-88
2023/10/27 07:17:02;;;;;;;0.30;0.30;;;13.10;99.90;;;;;;7396299;19;20180;-89
2023/10/27 07:19:28;;;;;;;0.30;0.30;;;13.00;99.90;;;;;;7396231;19;20178;-90
2023/10/27 07:21:57;;;;;;;0.40;0.40;;;13.20;99.90;;;;;;7399240;19;20589;-89
2023/10/27 07:24:24;;;;;;;0.40;0.40;;;13.30;99.90;;;;;;7399405;19;20502;-89
2023/10/27 07:26:50;;;;;;;0.73;0.53;;;13.30;99.90;;;;;;7397259;19;20615;-89
2023/10/27 07:29:16;;;;;;;0.33;0.33;;;13.50;99.90;;;;;;7399774;19;20134;-89
2023/10/27 07:31:42;;;;;;;0.73;0.40;;;13.20;99.90;;;;;;7403331;19;20146;-91
2023/10/27 07:34:08;;;;;;;1.00;0.50;;;13.40;99.90;;;;;;7402689;19;20182;-89
2023/10/27 07:36:43;;;;;;;0.63;0.50;;;13.70;99.90;;;;;;7400581;19;20162;-88
2023/10/27 07:39:10;;;;;;;0.67;0.60;;;13.20;99.90;;;;;;7402215;19;20134;-90
2023/10/27 07:41:37;;;;;;;1.40;1.00;;;13.40;99.90;;;;;;7405509;19;20161;-90
2023/10/27 07:44:06;;;;;;;3.13;1.30;;;13.40;99.90;;;;;;7400317;19;20150;-89
2023/10/27 07:46:32;;;;;;;0.33;0.33;;;13.50;99.90;;;;;;7402523;19;20170;-89
2023/10/27 07:48:58;;;;;;;0.30;0.30;;;13.40;99.90;;;;;;7402803;19;20135;-89
2023/10/27 07:51:24;;;;;;;0.40;0.30;;;13.50;99.90;;;;;;7400747;19;20551;-90
2023/10/27 07:53:50;;;;;;;0.30;0.30;;;13.60;99.90;;;;;;7403555;19;20150;-88
2023/10/27 07:56:18;;;;;;;0.27;0.27;;;13.60;99.90;;;;;;7399426;19;20146;-89
2023/10/27 07:58:45;;;;;;;0.43;0.43;;;13.60;99.90;;;;;;7408136;19;20498;-89
2023/10/27 08:01:11;;;;;;;0.30;0.30;;;13.60;99.90;;;;;;7410648;19;20149;-90
2023/10/27 08:03:45;;;;;;;0.67;0.50;;;13.50;99.90;;;;;;7408361;19;20143;-89
2023/10/27 08:06:12;;;;;;;0.30;0.30;;;13.60;99.90;;;;;;7399098;19;20609;-86
2023/10/27 08:08:38;;;;;;;0.30;0.23;;;13.40;99.90;;;;;;7402544;19;20138;-88
2023/10/27 08:11:05;;;;;;;0.33;0.33;;;13.80;99.90;;;;;;7400796;19;20151;-83
2023/10/27 08:13:34;;;;;;;0.20;0.20;;;13.40;99.90;;;;;;7399179;19;20237;-90
2023/10/27 08:16:01;;;;;;;0.30;0.30;;;13.50;99.90;;;;;;7397199;19;20174;-86
2023/10/27 08:18:27;;;;;;;0.20;0.20;;;13.50;99.90;;;;;;7400036;19;20520;-81
2023/10/27 08:20:55;;;;;;;0.20;0.20;;;13.50;99.90;;;;;;7400021;19;20151;-86
2023/10/27 08:23:21;;;;;;;0.28;0.28;;;13.50;99.90;;;;;;7396394;19;20159;-83
2023/10/27 08:25:51;;;;;;;0.13;0.13;;;13.50;99.90;;;;;;7394428;19;20198;-84
2023/10/27 08:28:17;;;;;;;1.93;0.53;;;13.50;99.90;;;;;;7395323;19;20146;-83
2023/10/27 08:30:44;;;;;;;0.28;0.25;;;13.60;99.90;;;;;;7393464;19;20487;-81
2023/10/27 08:33:10;;;;;;;0.27;0.27;;;13.60;99.90;;;;;;7391308;19;20703;-82
2023/10/27 08:35:36;;;;;;;0.30;0.30;;;13.70;99.90;;;;;;7392076;19;20154;-82
2023/10/27 08:38:02;;;;;;;0.53;0.53;;;13.60;99.90;;;;;;7391632;19;20135;-82
2023/10/27 08:40:28;;;;;;;3.30;1.50;;;13.50;99.90;;;;;;7393174;19;20161;-80
2023/10/27 08:42:55;;;;;;;1.67;1.00;;;13.40;99.90;;;;;;7390987;19;20158;-83
2023/10/27 08:45:22;;;;;;;3.33;1.57;;;13.60;99.90;;;;;;7390797;19;20139;-85
2023/10/27 08:47:49;;;;;;;1.63;1.27;;;13.60;99.90;;;;;;7391635;19;20149;-83
2023/10/27 08:50:16;;;;;;;2.23;1.77;;;13.40;99.90;;;;;;7390702;19;20135;-83
2023/10/27 08:52:42;;;;;;;0.60;0.60;;;13.30;99.90;;;;;;7391746;19;20150;-85
2023/10/27 08:55:10;;;;;;;1.50;1.10;;;13.50;99.90;;;;;;7393785;19;20168;-86
2023/10/27 08:57:37;;;;;;;0.83;0.80;;;13.30;99.90;;;;;;7391660;19;20506;-86
2023/10/27 09:00:07;;;;;;;1.13;0.87;;;13.30;99.90;;;;;;7390366;19;20143;-81
2023/10/27 09:02:35;;;;;;;4.95;2.92;;;13.20;99.90;;;;;;7395333;19;20130;-79
2023/10/27 09:05:09;;;;;;;0.57;0.53;;;13.40;99.90;;;;;;7390025;19;20138;-79
2023/10/27 09:07:38;;;;;;;0.80;0.60;;;13.40;99.90;;;;;;7389913;19;20274;-79
2023/10/27 09:10:06;;;;;;;0.47;0.47;;;13.30;99.90;;;;;;7389733;19;20469;-82
2023/10/27 09:12:36;;;;;;;0.30;0.30;;;13.40;99.90;;;;;;7389840;19;20620;-79
2023/10/27 09:15:13;;;;;;;0.43;0.43;;;13.40;99.90;;;;;;7388270;19;20164;-79
2023/10/27 09:17:56;;;;;;;0.70;0.43;;;13.50;99.90;;;;;;7389032;19;20137;-79
2023/10/27 09:20:23;;;;;;;0.63;0.40;;;13.40;99.90;;;;;;7391194;19;20617;-77
2023/10/27 09:23:04;;;;;;;0.50;0.40;;;13.00;99.90;;;;;;7388931;19;20131;-80
2023/10/27 09:25:34;;;;;;;0.50;0.50;;;13.20;99.90;;;;;;7388172;19;20158;-80
2023/10/27 09:28:05;;;;;;;0.27;0.27;;;13.20;99.90;;;;;;7388270;19;20142;-79
2023/10/27 09:30:37;;;;;;;0.35;0.30;;;13.40;99.90;;;;;;7395431;19;20505;-80
2023/10/27 09:33:13;;;;;;;0.30;0.30;;;13.40;99.90;;;;;;7397743;19;20830;-80
2023/10/27 09:35:40;;;;;;;2.53;0.87;;;13.50;99.90;;;;;;7394892;19;20169;-80
2023/10/27 09:38:06;;;;;;;1.53;1.10;;;13.50;99.90;;;;;;7398387;19;20163;-81
2023/10/27 09:40:35;;;;;;;1.20;0.90;;;13.70;99.90;;;;;;7395645;19;20885;-80
2023/10/27 09:43:02;;;;;;;2.70;1.10;;;13.50;99.90;;;;;;7393734;19;20127;-80
2023/10/27 09:45:32;;;;;;;0.70;0.70;;;13.50;99.90;;;;;;7395239;19;20169;-78
2023/10/27 09:48:02;;;;;;;0.77;0.53;;;13.60;99.90;;;;;;7395112;19;20762;-79
2023/10/27 09:50:30;;;;;;;1.30;0.83;;;13.70;99.90;;;;;;7395316;19;20504;-80
2023/10/27 09:53:01;;;;;;;3.25;2.03;;;13.80;99.90;;;;;;7394360;19;20131;-79
2023/10/27 09:55:28;;;;;;;1.87;1.33;;;13.90;99.90;;;;;;7393777;19;20134;-79
2023/10/27 09:57:53;;;;;;;1.02;0.93;;;13.90;99.90;;;;;;7396426;19;20583;-79
2023/10/27 10:00:29;;;;;;;0.40;0.40;;;13.70;99.90;;;;;;7396523;19;20155;-79
2023/10/27 10:02:56;;;;;;;3.97;1.03;;;13.80;99.90;;;;;;7393671;19;20146;-79
2023/10/27 10:05:23;;;;;;;0.60;0.60;;;13.80;99.90;;;;;;7393312;19;20151;-78
2023/10/27 10:07:56;;;;;;;1.80;1.20;;;13.70;99.90;;;;;;7394538;19;20142;-77
2023/10/27 10:10:30;;;;;;;1.27;0.70;;;13.50;99.90;;;;;;7393867;19;20150;-78
2023/10/27 10:13:02;;;;;;;0.70;0.70;;;13.40;99.90;;;;;;7394710;19;20134;-80
2023/10/27 10:15:33;;;;;;;0.63;0.40;;;13.60;99.90;;;;;;7393555;19;20256;-79
2023/10/27 10:18:00;;;;;;;0.77;0.60;;;13.70;99.90;;;;;;7395649;19;20151;-79
2023/10/27 10:20:44;;;;;;;1.03;0.63;;;13.70;99.90;;;;;;7393412;19;20245;-78
2023/10/27 10:23:19;;;;;;;0.37;0.30;;;13.70;99.90;;;;;;7394296;19;20158;-81
2023/10/27 10:25:50;;;;;;;1.17;0.30;;;13.60;99.90;;;;;;7394767;19;20138;-80
2023/10/27 10:28:41;;;;;;;2.20;1.80;;;13.60;99.90;;;;;;7395154;19;20166;-80
2023/10/27 10:31:06;;;;;;;2.27;0.60;;;13.50;99.90;;;;;;7395684;19;20146;-81
2023/10/27 10:33:36;;;;;;;0.30;0.28;;;13.70;99.90;;;;;;7395877;19;20256;-81
2023/10/27 10:36:26;;;;;;;3.27;2.17;;;13.80;99.90;;;;;;7397019;19;20143;-85
2023/10/27 10:38:58;;;;;;;1.27;1.13;;;13.80;99.90;;;;;;7396738;19;20162;-84
2023/10/27 10:41:43;;;;;;;0.30;0.30;;;14.00;99.90;;;;;;7397013;19;20142;-83
2023/10/27 10:44:19;;;;;;;0.40;0.40;;;14.20;99.90;;;;;;7398769;19;20138;-83
2023/10/27 10:46:45;;;;;;;0.30;0.30;;;14.40;99.90;;;;;;7396825;19;20154;-83
2023/10/27 10:49:27;;;;;;;0.30;0.30;;;14.50;99.90;;;;;;7397324;19;20149;-84
2023/10/27 10:51:58;;;;;;;0.40;0.40;;;14.70;99.90;;;;;;7397953;19;20569;-83
2023/10/27 10:54:31;;;;;;;0.52;0.40;;;14.80;99.90;;;;;;7394442;19;20146;-82
2023/10/27 10:57:02;;;;;;;0.20;0.20;;;14.70;99.90;;;;;;7408691;19;20137;-83
2023/10/27 10:59:28;;;;;;;0.20;0.20;;;14.50;99.90;;;;;;7397908;19;20167;-80
2023/10/27 11:01:56;;;;;;;0.30;0.30;;;14.70;99.90;;;;;;7395532;19;20489;-81
2023/10/27 11:04:33;;;;;;;0.30;0.30;;;14.80;99.90;;;;;;7392762;19;20159;-80
2023/10/27 11:07:00;;;;;;;0.55;0.50;;;14.70;99.90;;;;;;7394180;19;20142;-80
2023/10/27 11:09:27;;;;;;;0.60;0.50;;;14.80;99.90;;;;;;7392348;19;20162;-81
2023/10/27 11:11:54;;;;;;;0.25;0.25;;;15.10;99.90;;;;;;7394208;19;20134;-80
2023/10/27 11:14:20;;;;;;;0.60;0.55;;;14.90;99.90;;;;;;7390273;19;20510;-80
2023/10/27 11:16:57;;;;;;;0.30;0.30;;;15.00;99.90;;;;;;7391298;19;20127;-79
2023/10/27 11:19:23;;;;;;;0.80;0.50;;;15.20;99.90;;;;;;7393585;19;20182;-79
2023/10/27 11:21:53;;;;;;;1.02;0.40;;;15.20;99.90;;;;;;7392467;19;20162;-79
2023/10/27 11:24:19;;;;;;;1.27;0.22;;;15.20;99.90;;;;;;7387391;19;20142;-79
2023/10/27 11:26:45;;;;;;;0.20;0.20;;;15.40;99.90;;;;;;7388980;19;20134;-79
2023/10/27 11:29:11;;;;;;;0.90;0.40;;;15.60;99.90;;;;;;7390304;19;20154;-79
2023/10/27 11:31:41;;;;;;;0.40;0.40;;;15.70;99.90;;;;;;7394617;19;20159;-79
2023/10/27 11:34:11;;;;;;;0.30;0.30;;;15.50;99.90;;;;;;7389765;19;20198;-80
2023/10/27 11:36:46;;;;;;;0.35;0.35;;;15.30;99.90;;;;;;7385256;19;20174;-79
2023/10/27 11:39:19;;;;;;;0.80;0.30;;;15.60;99.90;;;;;;7388592;19;20598;-79
2023/10/27 11:41:51;;;;;;;0.30;0.30;;;15.50;99.90;;;;;;7392671;19;20179;-80
2023/10/27 11:44:18;;;;;;;0.55;0.50;;;15.70;99.90;;;;;;7380095;19;20169;-81
2023/10/27 11:46:52;;;;;;;0.20;0.20;;;15.80;99.90;;;;;;7383713;19;20157;-78
2023/10/27 11:49:18;;;;;;;1.48;0.40;;;15.50;99.90;;;;;;7390792;19;20134;-78
2023/10/27 11:51:48;;;;;;;0.75;0.38;;;15.60;99.90;;;;;;7386545;19;20626;-79
2023/10/27 11:54:17;;;;;;;0.50;0.40;;;15.80;99.90;;;;;;7385738;19;20734;-80
2023/10/27 11:56:43;;;;;;;0.80;0.30;;;15.60;99.90;;;;;;7384108;19;20495;-79
2023/10/27 11:59:10;;;;;;;0.20;0.20;;;15.40;99.90;;;;;;7387859;19;20202;-79
2023/10/27 12:01:37;;;;;;;0.52;0.43;;;15.10;99.90;;;;;;7390185;19;20147;-78
2023/10/27 12:04:06;;;;;;;0.30;0.30;;;15.30;99.90;;;;;;7387895;19;20139;-79
2023/10/27 12:06:32;;;;;;;0.30;0.30;;;15.30;99.90;;;;;;7389340;19;20514;-80
2023/10/27 12:08:58;;;;;;;0.85;0.38;;;15.60;99.90;;;;;;7382803;19;20146;-80
2023/10/27 12:11:24;;;;;;;0.40;0.30;;;16.00;99.90;;;;;;7388279;19;20150;-83
2023/10/27 12:13:50;;;;;;;0.47;0.47;;;16.20;99.90;;;;;;7391254;19;20634;-80
2023/10/27 12:16:15;;;;;;;0.20;0.20;;;16.40;99.90;;;;;;7388330;19;20177;-82
2023/10/27 12:18:43;;;;;;;0.80;0.70;;;16.60;99.90;;;;;;7390419;19;20164;-82
2023/10/27 12:21:09;;;;;;;0.63;0.40;;;16.60;99.90;;;;;;7386712;19;20685;-83
2023/10/27 12:23:38;;;;;;;1.27;0.45;;;16.10;99.90;;;;;;7388695;19;20147;-83
2023/10/27 12:26:04;;;;;;;0.30;0.30;;;15.90;99.90;;;;;;7384684;19;20505;-82
2023/10/27 12:28:30;;;;;;;1.73;0.43;;;16.00;99.90;;;;;;7387620;19;20157;-78
2023/10/27 12:30:57;;;;;;;0.30;0.30;;;15.90;99.90;;;;;;7389023;19;20201;-80
2023/10/27 12:33:24;;;;;;;0.20;0.20;;;16.00;99.90;;;;;;7376278;19;20127;-80
2023/10/27 12:35:50;;;;;;;0.28;0.28;;;15.90;99.90;;;;;;7387523;19;20181;-79
2023/10/27 12:38:20;;;;;;;0.98;0.45;;;16.00;99.90;;;;;;7387701;19;20161;-81
2023/10/27 12:40:47;;;;;;;0.50;0.50;;;15.90;99.90;;;;;;7386158;19;20123;-78
2023/10/27 12:43:20;;;;;;;0.77;0.40;;;16.00;99.90;;;;;;7391306;19;20135;-77
2023/10/27 12:45:45;;;;;;;0.70;0.30;;;16.30;99.90;;;;;;7387825;19;20147;-79
2023/10/27 12:48:11;;;;;;;0.20;0.20;;;16.00;99.90;;;;;;7388231;19;20774;-76
2023/10/27 12:50:37;;;;;;;0.28;0.28;;;16.40;99.90;;;;;;7385332;19;20154;-77